Chippewa Falls, WI (54729)

1:11 AM CDT on August 24, 2017 (GMT -0500)
Eagle Hill | | Change Station

Elev 932 ft 44.95 °N, 91.41 °W | Updated 9 seconds ago

Rain
Rain
56.7 °F
Feels Like 56.7 °F
N
0.0
Wind Variable Wind from ENE

Today
High -- | Low -- °F
--% Chance of Precip.
Yesterday
High -- | Low -- °F
Precip. -- in
Pressure 30.11 in
Visibility 10.0 miles
Clouds Few 5500 ft
Few 7000 ft
Overcast 9000 ft
Dew Point 54 °F
Humidity 91%
Rainfall 0.00 in
Snow Depth Not available.
6:18 AM 7:56 PM
Waxing Crescent, 8% visible
METAR KEAU 240556Z AUTO 03007KT 10SM FEW055 FEW070 OVC090 14/11 A3011 RMK AO2 SLP195 T01440111 10200 20111 402280106 53019
Pressure 30.11 in
Visibility 10.0 miles
Clouds Few 5500 ft
Few 7000 ft
Overcast 9000 ft
Dew Point 54 °F
Humidity 91%
Rainfall 0.00 in
Snow Depth Not available.
6:18 AM 7:56 PM
Waxing Crescent, 8% visible
METAR KEAU 240556Z AUTO 03007KT 10SM FEW055 FEW070 OVC090 14/11 A3011 RMK AO2 SLP195 T01440111 10200 20111 402280106 53019

Get Severe Weather Alerts

Thanks for signing up!

Be on the lookout for a verification email in your inbox.

You'll start receiving the daily forecast at 6 AM.

×

10-Day Weather Forecast

Almanac

Astronomy

Aug. 24, 2017 Rise Set
Actual Time
Civil Twilight
Nautical Twilight
Astronomical Twilight
Moon
Length of Visible Light
Length of Day
Tomorrow will be .
, % of the Moon is Illuminated

Today's Extremes

State Highs State Lows

Community

WunderPhotos

Category 6

Welcome to Category 6. This is the collective home for Weather Underground's featured writeups by Dr. Jeff Masters (right), Bob Henson (left), Chris Burt, and other regular contributors.

Nearby

Air Quality

  Air Quality AQ Index Pollutant
Not available.

Snow Depth

Station Depth Elevation

Earthquake Activity

City Distance Mag. Time & Date
Minimum magnitude displayed is 2.5.

Coastal Water Temperatures

Place Temperature

Stations

Nearby Weather Stations

Station Location Temp. Windchill Dew Point Humidity Wind Precip. Elev Updated Type
                   

Watches & Warnings

There are currently no watches in effect.